Time;durP1;ratioP1;P1;durP2;ratioP2;P2;SDS_P1;SDS_P2;PMS_P1;PMS_P2;Temp;Humidity;BMP_temperature;BMP_pressure;BME280_temperature;BME280_humidity;BME280_pressure;Samples;Min_cycle;Max_cycle;Signal;HPM_P1;HPM_P2
2021/12/23 00:01:20;;;;;;;21.15;11.75;;;-1.70;99.90;;;;;;5050403;28;20174;-66
2021/12/23 00:03:45;;;;;;;25.08;11.73;;;-1.70;99.90;;;;;;5051077;28;20455;-66
2021/12/23 00:06:11;;;;;;;21.55;11.57;;;-1.70;99.90;;;;;;5050518;28;20037;-64
2021/12/23 00:08:37;;;;;;;22.90;11.48;;;-1.70;99.90;;;;;;5052100;28;20055;-66
2021/12/23 00:11:03;;;;;;;21.30;11.77;;;-1.70;99.90;;;;;;5050039;28;20076;-66
2021/12/23 00:13:28;;;;;;;19.23;11.88;;;-1.70;99.90;;;;;;5042868;28;20041;-66
2021/12/23 00:18:44;;;;;;;22.77;12.65;;;-1.70;99.90;;;;;;5050416;28;20061;-66
2021/12/23 00:23:57;;;;;;;20.02;11.95;;;-1.60;99.90;;;;;;5047873;28;20510;-66
2021/12/23 00:26:22;;;;;;;22.70;11.75;;;-1.60;99.90;;;;;;5051739;28;20056;-66
2021/12/23 00:28:48;;;;;;;20.42;10.18;;;-1.60;99.90;;;;;;5042162;28;20115;-67
2021/12/23 00:31:15;;;;;;;21.73;11.50;;;-1.60;99.90;;;;;;5046660;28;20118;-66
2021/12/23 00:33:42;;;;;;;24.13;12.10;;;-1.60;99.90;;;;;;5026549;28;20040;-66
2021/12/23 00:36:10;;;;;;;22.00;11.13;;;-1.50;99.90;;;;;;5050289;28;20449;-67
2021/12/23 00:38:41;;;;;;;23.58;12.13;;;-1.50;99.90;;;;;;5050891;28;20052;-66
2021/12/23 00:41:08;;;;;;;22.38;11.90;;;-1.50;99.90;;;;;;5050493;28;20134;-66
2021/12/23 00:43:35;;;;;;;22.00;12.32;;;-1.50;99.90;;;;;;5033230;28;20102;-66
2021/12/23 00:46:03;;;;;;;23.55;12.15;;;-1.50;99.90;;;;;;5049768;28;20052;-66
2021/12/23 00:48:29;;;;;;;23.05;12.52;;;-1.50;99.90;;;;;;5050181;28;20447;-67
2021/12/23 00:50:56;;;;;;;24.88;14.13;;;-1.50;99.90;;;;;;5050572;28;20048;-66
2021/12/23 00:53:23;;;;;;;26.30;13.27;;;-1.50;99.90;;;;;;5051104;28;20554;-66
2021/12/23 00:55:54;;;;;;;25.73;13.07;;;-1.50;99.90;;;;;;5049179;28;20048;-67
2021/12/23 00:58:21;;;;;;;21.77;12.48;;;-1.50;99.90;;;;;;5049214;28;20099;-66
2021/12/23 01:00:47;;;;;;;26.45;13.98;;;-1.40;99.90;;;;;;5049588;28;20080;-66
2021/12/23 01:03:16;;;;;;;22.08;13.32;;;-1.40;99.90;;;;;;5031588;28;20057;-66
2021/12/23 01:05:42;;;;;;;26.08;13.68;;;-1.40;99.90;;;;;;5046580;28;20107;-66
2021/12/23 01:08:08;;;;;;;27.05;13.60;;;-1.40;99.90;;;;;;5040794;28;20048;-66
2021/12/23 01:10:35;;;;;;;22.48;12.68;;;-1.40;99.90;;;;;;5047091;28;20051;-67
2021/12/23 01:13:03;;;;;;;23.95;13.18;;;-1.30;99.90;;;;;;5049022;28;20041;-66
2021/12/23 01:18:37;;;;;;;22.10;12.90;;;-1.30;99.90;;;;;;5038956;28;20057;-68
2021/12/23 01:21:03;;;;;;;21.25;11.90;;;-1.30;99.90;;;;;;5047325;28;20072;-67
2021/12/23 01:23:31;;;;;;;22.33;11.77;;;-1.20;99.90;;;;;;5047109;28;20438;-65
2021/12/23 01:25:56;;;;;;;21.48;11.40;;;-1.20;99.90;;;;;;5047133;28;20436;-66
2021/12/23 01:28:23;;;;;;;25.77;12.23;;;-1.20;99.90;;;;;;5048004;28;20137;-66
2021/12/23 01:30:48;;;;;;;21.95;12.57;;;-1.20;99.90;;;;;;5044273;28;20489;-66
2021/12/23 01:33:14;;;;;;;22.65;12.35;;;-1.10;99.90;;;;;;5048434;28;20048;-67
2021/12/23 01:35:41;;;;;;;23.23;11.85;;;-1.10;99.90;;;;;;5053385;28;20114;-66
2021/12/23 01:38:08;;;;;;;19.73;11.90;;;-1.10;99.90;;;;;;5038552;28;20124;-66
2021/12/23 01:40:34;;;;;;;19.02;11.77;;;-1.10;99.90;;;;;;5050191;28;20479;-66
2021/12/23 01:43:00;;;;;;;18.85;12.40;;;-1.10;99.90;;;;;;5048244;28;20041;-68
2021/12/23 01:45:29;;;;;;;27.95;12.95;;;-1.00;99.90;;;;;;5047814;28;20053;-65
2021/12/23 01:47:56;;;;;;;21.20;12.45;;;-1.00;99.90;;;;;;5048247;28;20025;-66
2021/12/23 01:50:26;;;;;;;20.15;11.40;;;-1.00;99.90;;;;;;5046786;28;20067;-66
2021/12/23 01:52:59;;;;;;;20.55;12.60;;;-1.00;99.90;;;;;;5048883;28;20117;-65
2021/12/23 01:55:26;;;;;;;25.17;13.63;;;-1.00;99.90;;;;;;5045138;28;20080;-65
2021/12/23 01:57:52;;;;;;;25.40;14.63;;;-1.00;99.90;;;;;;5047536;28;20044;-66
2021/12/23 02:00:26;;;;;;;26.95;14.77;;;-1.00;99.90;;;;;;5049677;28;20052;-66
2021/12/23 02:02:53;;;;;;;27.40;14.63;;;-1.10;99.90;;;;;;5047519;28;20106;-67
2021/12/23 02:05:20;;;;;;;28.08;15.63;;;-1.10;99.90;;;;;;5046306;28;20049;-67
2021/12/23 02:07:45;;;;;;;23.15;13.25;;;-1.10;99.90;;;;;;5050093;28;20060;-65
2021/12/23 02:10:11;;;;;;;28.98;15.88;;;-1.10;99.90;;;;;;5048494;28;20483;-67
2021/12/23 02:12:37;;;;;;;28.60;15.60;;;-1.10;99.90;;;;;;5047794;28;20033;-68
2021/12/23 02:15:04;;;;;;;29.95;16.02;;;-1.10;99.90;;;;;;5046842;28;20510;-65
2021/12/23 02:17:35;;;;;;;27.08;16.05;;;-1.10;99.90;;;;;;5045157;28;20045;-67
2021/12/23 02:20:01;;;;;;;30.48;16.42;;;-1.10;99.90;;;;;;5024714;28;20128;-65
2021/12/23 02:22:27;;;;;;;24.52;14.07;;;-1.00;99.90;;;;;;5037813;28;20120;-66
2021/12/23 02:24:52;;;;;;;29.55;14.82;;;-1.00;99.90;;;;;;5044011;28;20048;-66
2021/12/23 02:27:18;;;;;;;27.33;15.73;;;-1.00;99.90;;;;;;5046795;28;20488;-66
2021/12/23 02:29:43;;;;;;;35.13;15.43;;;-1.00;99.90;;;;;;5046725;28;20340;-65
2021/12/23 02:32:09;;;;;;;27.70;14.35;;;-0.90;99.90;;;;;;5043403;28;20048;-65
2021/12/23 02:34:35;;;;;;;27.05;15.60;;;-0.90;99.90;;;;;;5044367;28;20113;-66
2021/12/23 02:37:01;;;;;;;31.08;15.35;;;-0.90;99.90;;;;;;5047129;28;20032;-66
2021/12/23 02:39:28;;;;;;;27.17;14.50;;;-0.90;99.90;;;;;;5048994;28;20049;-66
2021/12/23 02:41:54;;;;;;;27.02;14.70;;;-0.80;99.90;;;;;;5016007;28;20550;-66
2021/12/23 02:44:21;;;;;;;24.77;14.40;;;-0.80;99.90;;;;;;5049793;28;20099;-66
2021/12/23 02:46:47;;;;;;;28.35;14.77;;;-0.80;99.90;;;;;;5050916;28;20044;-66
2021/12/23 02:49:14;;;;;;;25.50;14.18;;;-0.80;99.90;;;;;;5050482;28;20036;-66
2021/12/23 02:51:40;;;;;;;26.27;14.55;;;-0.80;99.90;;;;;;5051090;28;20055;-67
2021/12/23 02:54:06;;;;;;;26.45;14.90;;;-0.80;99.90;;;;;;5048111;28;20041;-67
2021/12/23 02:56:33;;;;;;;25.42;14.48;;;-0.80;99.90;;;;;;5048016;28;20040;-66
2021/12/23 02:58:58;;;;;;;24.23;13.63;;;-0.80;99.90;;;;;;5048340;28;20129;-67
2021/12/23 03:01:25;;;;;;;28.00;15.82;;;-0.70;99.90;;;;;;5045398;28;20157;-67
2021/12/23 03:03:51;;;;;;;27.33;14.98;;;-0.70;99.90;;;;;;5052777;28;20041;-66
2021/12/23 03:06:19;;;;;;;30.08;15.43;;;-0.70;99.90;;;;;;5046952;28;20103;-66
2021/12/23 03:08:48;;;;;;;23.92;13.80;;;-0.70;99.90;;;;;;5051921;28;20048;-66
2021/12/23 03:11:20;;;;;;;26.17;14.73;;;-0.70;99.90;;;;;;5049512;28;20426;-66
2021/12/23 03:13:47;;;;;;;24.77;14.23;;;-0.70;99.90;;;;;;5063773;28;20056;-66
2021/12/23 03:16:14;;;;;;;25.50;14.13;;;-0.70;99.90;;;;;;5050170;28;20541;-67
2021/12/23 03:18:40;;;;;;;38.45;13.70;;;-0.70;99.90;;;;;;5051087;28;20041;-66
2021/12/23 03:21:06;;;;;;;22.48;13.32;;;-0.70;99.90;;;;;;5051794;28;20561;-65
2021/12/23 03:23:32;;;;;;;22.85;14.23;;;-0.70;99.90;;;;;;5051344;28;20123;-66
2021/12/23 03:25:59;;;;;;;28.77;14.30;;;-0.70;99.90;;;;;;5049222;28;20034;-66
2021/12/23 03:28:25;;;;;;;30.38;14.90;;;-0.70;99.90;;;;;;5051884;28;20045;-67
2021/12/23 03:30:51;;;;;;;23.90;13.85;;;-0.70;99.90;;;;;;5048154;28;20434;-66
2021/12/23 03:33:17;;;;;;;24.45;14.60;;;-0.70;99.90;;;;;;5044870;28;20048;-66
2021/12/23 03:35:44;;;;;;;24.25;13.90;;;-0.70;99.90;;;;;;5051967;28;20049;-68
2021/12/23 03:38:10;;;;;;;27.73;14.05;;;-0.70;99.90;;;;;;5043629;28;20063;-67
2021/12/23 03:40:36;;;;;;;25.42;14.25;;;-0.60;99.90;;;;;;5043339;28;20057;-66
2021/12/23 03:43:02;;;;;;;27.85;15.25;;;-0.10;99.90;;;;;;5050384;28;20091;-66
2021/12/23 03:45:28;;;;;;;28.00;13.85;;;-0.60;99.90;;;;;;5050687;28;20215;-67
2021/12/23 03:47:54;;;;;;;23.08;13.25;;;-0.60;99.90;;;;;;5049618;28;20132;-66
2021/12/23 03:50:22;;;;;;;24.35;13.65;;;-0.60;99.90;;;;;;5048621;28;20499;-67
2021/12/23 03:52:48;;;;;;;25.83;14.15;;;-0.60;99.90;;;;;;5049246;28;20118;-67
2021/12/23 03:55:15;;;;;;;26.00;14.15;;;-0.60;99.90;;;;;;5043528;28;20510;-67
2021/12/23 03:57:41;;;;;;;23.13;13.48;;;-0.60;99.90;;;;;;5051244;28;20506;-66
2021/12/23 04:00:10;;;;;;;31.23;15.45;;;-0.60;99.90;;;;;;5048019;28;20084;-67
2021/12/23 04:02:36;;;;;;;26.40;14.18;;;-0.50;99.90;;;;;;5050067;28;20112;-67
2021/12/23 04:05:03;;;;;;;28.45;15.05;;;-0.60;99.90;;;;;;5046771;28;20120;-67
2021/12/23 04:07:28;;;;;;;25.00;14.38;;;-0.50;99.90;;;;;;5050201;28;20045;-67
2021/12/23 04:09:54;;;;;;;28.05;13.80;;;-0.50;99.90;;;;;;5040926;28;20049;-67
2021/12/23 04:12:21;;;;;;;25.33;14.30;;;-0.50;99.90;;;;;;5051056;28;20380;-67
2021/12/23 04:14:47;;;;;;;27.05;14.00;;;-0.50;99.90;;;;;;5049066;28;20041;-67
2021/12/23 04:17:13;;;;;;;23.08;13.50;;;-0.50;99.90;;;;;;5047125;28;20044;-67
2021/12/23 04:19:39;;;;;;;25.30;14.45;;;-0.50;99.90;;;;;;5051440;28;20377;-66
2021/12/23 04:22:05;;;;;;;26.20;14.55;;;-1.20;99.90;;;;;;5026576;28;20132;-67
2021/12/23 04:24:30;;;;;;;26.55;14.80;;;-0.40;99.90;;;;;;5047876;28;20037;-67
2021/12/23 04:26:56;;;;;;;27.23;12.98;;;-0.50;99.90;;;;;;5031874;28;20576;-67
2021/12/23 04:29:23;;;;;;;25.65;13.20;;;-0.40;99.90;;;;;;5048519;28;20076;-67
2021/12/23 04:31:49;;;;;;;26.45;14.00;;;-0.40;99.90;;;;;;5049979;28;20128;-67
2021/12/23 04:34:14;;;;;;;26.98;14.13;;;-0.40;99.90;;;;;;5024184;28;20048;-66
2021/12/23 04:36:40;;;;;;;23.52;14.10;;;-0.40;99.90;;;;;;5050001;28;20374;-67
2021/12/23 04:39:06;;;;;;;23.88;14.70;;;-0.40;99.90;;;;;;5047996;28;20044;-66
2021/12/23 04:41:32;;;;;;;27.55;14.68;;;-0.40;99.90;;;;;;5048698;28;20124;-67
2021/12/23 04:43:58;;;;;;;25.40;14.07;;;-0.40;99.90;;;;;;5050270;28;20175;-67
2021/12/23 04:46:24;;;;;;;25.90;14.63;;;-0.40;99.90;;;;;;5048284;28;20053;-68
2021/12/23 04:48:51;;;;;;;25.20;14.23;;;-0.40;99.90;;;;;;5050233;28;20131;-66
2021/12/23 04:51:17;;;;;;;30.02;14.98;;;-0.40;99.90;;;;;;5047396;28;20076;-67
2021/12/23 04:53:44;;;;;;;24.38;14.25;;;-0.40;99.90;;;;;;5048884;28;20043;-68
2021/12/23 04:56:11;;;;;;;25.08;14.52;;;-0.20;99.90;;;;;;5049565;28;20047;-67
2021/12/23 04:58:36;;;;;;;27.13;14.02;;;-0.40;99.90;;;;;;5047568;28;20041;-67
2021/12/23 05:01:03;;;;;;;28.70;14.18;;;-0.30;99.90;;;;;;5045848;28;20044;-65
2021/12/23 05:03:29;;;;;;;25.85;14.68;;;-0.30;99.90;;;;;;5049002;28;20160;-66
2021/12/23 05:05:55;;;;;;;26.52;14.50;;;-0.30;99.90;;;;;;5042350;28;20179;-66
2021/12/23 05:08:21;;;;;;;27.70;15.50;;;-0.30;99.90;;;;;;5046950;28;20138;-66
2021/12/23 05:10:49;;;;;;;27.52;14.75;;;-0.30;99.90;;;;;;5031943;28;20045;-67
2021/12/23 05:13:14;;;;;;;26.48;14.40;;;-0.30;99.90;;;;;;5039623;28;20084;-66
2021/12/23 05:15:40;;;;;;;25.23;14.25;;;-0.30;99.90;;;;;;5044757;28;20033;-66
2021/12/23 05:18:07;;;;;;;27.73;14.82;;;-0.30;99.90;;;;;;5047076;28;20430;-65
2021/12/23 05:20:34;;;;;;;24.27;14.57;;;-0.70;99.90;;;;;;5046083;28;20065;-66
2021/12/23 05:23:00;;;;;;;28.05;14.55;;;-0.30;99.90;;;;;;5049760;28;20451;-66
2021/12/23 05:25:25;;;;;;;26.88;14.07;;;-0.30;99.90;;;;;;5047721;28;20409;-66
2021/12/23 05:27:52;;;;;;;25.98;14.52;;;-0.30;99.90;;;;;;5048742;28;20044;-65
2021/12/23 05:30:19;;;;;;;23.67;13.90;;;-0.20;99.90;;;;;;5047684;28;20041;-66
2021/12/23 05:32:45;;;;;;;23.75;14.18;;;-0.20;99.90;;;;;;5032429;28;20049;-66
2021/12/23 05:35:13;;;;;;;23.02;13.05;;;-0.20;99.90;;;;;;5024070;28;20395;-68
2021/12/23 05:37:40;;;;;;;25.00;14.60;;;-0.20;99.90;;;;;;5047580;28;20124;-67
2021/12/23 05:40:08;;;;;;;21.35;13.55;;;-0.10;99.90;;;;;;5045860;28;20141;-66
2021/12/23 05:42:34;;;;;;;;;;;0.40;99.90;;;;;;5050828;28;20080;-67
2021/12/23 05:44:59;;;;;;;25.63;13.50;;;-0.10;99.90;;;;;;5050117;28;20000;-67
2021/12/23 05:47:25;;;;;;;26.80;14.73;;;-0.10;99.90;;;;;;5045135;28;20453;-66
2021/12/23 05:49:51;;;;;;;22.92;13.70;;;-0.10;99.90;;;;;;5047847;28;20102;-66
2021/12/23 05:52:16;;;;;;;27.08;13.63;;;-0.10;99.90;;;;;;5045815;28;20077;-68
2021/12/23 05:54:42;;;;;;;23.33;14.25;;;-0.10;99.90;;;;;;5042541;28;20037;-65
2021/12/23 05:57:08;;;;;;;23.80;14.32;;;-0.10;99.90;;;;;;5044729;28;20123;-66
2021/12/23 05:59:35;;;;;;;23.25;13.98;;;-0.10;99.90;;;;;;5048431;28;20038;-66
2021/12/23 06:02:04;;;;;;;27.83;14.30;;;-0.10;99.90;;;;;;5042457;28;20048;-66
2021/12/23 06:04:30;;;;;;;26.70;14.73;;;-0.10;99.90;;;;;;5039402;28;20040;-65
2021/12/23 06:06:56;;;;;;;22.13;13.65;;;-0.10;99.90;;;;;;5031525;28;20053;-65
2021/12/23 06:09:22;;;;;;;25.60;14.98;;;-0.10;99.90;;;;;;5046522;28;20049;-65
2021/12/23 06:11:47;;;;;;;23.63;14.18;;;-0.10;99.90;;;;;;5046696;28;20095;-66
2021/12/23 06:14:13;;;;;;;25.88;14.35;;;-0.10;99.90;;;;;;5052980;28;20033;-66
2021/12/23 06:16:39;;;;;;;26.48;15.00;;;-0.10;99.90;;;;;;5051898;28;20136;-66
2021/12/23 06:19:04;;;;;;;27.38;15.65;;;-0.10;99.90;;;;;;5049332;28;20045;-66
2021/12/23 06:21:31;;;;;;;25.60;13.35;;;-0.10;99.90;;;;;;5051789;28;20107;-66
2021/12/23 06:23:58;;;;;;;24.02;15.23;;;0.00;99.90;;;;;;5050762;28;20045;-67
2021/12/23 06:26:23;;;;;;;27.38;15.35;;;0.00;99.90;;;;;;5049274;28;20049;-65
2021/12/23 06:28:49;;;;;;;24.38;13.90;;;0.00;99.90;;;;;;5051726;28;20045;-67
2021/12/23 06:31:15;;;;;;;25.42;14.88;;;0.00;99.90;;;;;;5049460;28;20036;-67
2021/12/23 06:33:41;;;;;;;24.30;14.13;;;0.00;99.90;;;;;;5052726;28;20096;-67
2021/12/23 06:36:06;;;;;;;26.55;14.27;;;0.10;99.90;;;;;;5049442;28;20155;-66
2021/12/23 06:38:35;;;;;;;24.38;15.38;;;0.10;99.90;;;;;;5053130;28;20130;-65
2021/12/23 06:41:01;;;;;;;25.92;14.43;;;0.10;99.90;;;;;;5052819;28;20086;-66
2021/12/23 06:43:27;;;;;;;24.02;13.95;;;0.00;99.90;;;;;;5048815;28;20074;-66
2021/12/23 06:45:52;;;;;;;26.98;15.05;;;0.10;99.90;;;;;;5045379;28;20487;-67
2021/12/23 06:48:18;;;;;;;23.42;13.98;;;0.10;99.90;;;;;;5046390;28;20691;-67
2021/12/23 06:50:45;;;;;;;25.48;14.43;;;0.10;99.90;;;;;;5050054;28;20045;-66
2021/12/23 06:53:13;;;;;;;24.77;14.68;;;0.10;99.90;;;;;;5053388;28;20044;-66
2021/12/23 06:55:41;;;;;;;26.25;15.25;;;0.10;99.90;;;;;;5051444;28;20573;-65
2021/12/23 06:58:07;;;;;;;28.50;14.82;;;0.10;99.90;;;;;;5051509;28;20048;-67
2021/12/23 07:00:32;;;;;;;25.40;15.27;;;0.10;99.90;;;;;;5067439;28;20441;-65
2021/12/23 07:02:58;;;;;;;26.73;15.57;;;0.20;99.90;;;;;;5052044;28;20045;-65
2021/12/23 07:05:24;;;;;;;27.70;15.23;;;0.10;99.90;;;;;;5047797;28;20053;-66
2021/12/23 07:10:16;;;;;;;27.05;15.23;;;0.20;99.90;;;;;;5052581;28;20052;-66
2021/12/23 07:12:42;;;;;;;29.40;16.38;;;0.20;99.90;;;;;;5051557;28;20076;-65
2021/12/23 07:15:08;;;;;;;26.38;16.17;;;0.20;99.90;;;;;;5055054;28;20095;-66
2021/12/23 07:17:35;;;;;;;31.17;17.08;;;0.20;99.90;;;;;;5051382;28;20051;-66
2021/12/23 07:20:02;;;;;;;31.73;16.90;;;0.30;99.90;;;;;;5057093;28;20549;-67
2021/12/23 07:22:27;;;;;;;29.02;17.35;;;0.20;99.90;;;;;;5053421;28;20109;-67
2021/12/23 07:24:53;;;;;;;29.65;16.63;;;0.20;99.90;;;;;;5049569;28;20141;-68
2021/12/23 07:27:18;;;;;;;33.97;17.30;;;0.20;99.90;;;;;;5049512;28;20037;-66
2021/12/23 07:29:44;;;;;;;27.23;17.05;;;0.20;99.90;;;;;;5053687;28;20550;-66
2021/12/23 07:32:10;;;;;;;33.63;17.45;;;0.20;99.90;;;;;;5052474;28;20041;-66
2021/12/23 07:34:39;;;;;;;32.92;18.17;;;0.20;99.90;;;;;;5052404;28;20057;-67
2021/12/23 07:37:05;;;;;;;30.33;17.55;;;0.20;99.90;;;;;;5049150;28;20110;-65
2021/12/23 07:39:30;;;;;;;31.48;17.17;;;0.20;99.90;;;;;;5046796;28;20046;-66
2021/12/23 07:41:56;;;;;;;28.83;18.20;;;0.20;99.90;;;;;;5047990;28;20056;-66
2021/12/23 07:44:22;;;;;;;32.13;17.95;;;0.20;99.90;;;;;;5048195;28;20107;-66
2021/12/23 07:46:50;;;;;;;32.70;17.83;;;0.20;99.90;;;;;;5049875;28;20471;-66
2021/12/23 07:49:16;;;;;;;36.42;18.42;;;0.30;99.90;;;;;;5030731;28;20041;-65
2021/12/23 07:51:42;;;;;;;35.17;19.85;;;0.20;99.90;;;;;;5051034;28;20052;-66
2021/12/23 07:54:09;;;;;;;31.05;16.80;;;0.20;99.90;;;;;;5051220;28;20044;-66
2021/12/23 07:56:34;;;;;;;31.80;18.13;;;0.20;99.90;;;;;;5051490;28;20041;-68
2021/12/23 07:59:00;;;;;;;38.78;17.70;;;0.20;99.90;;;;;;5049125;28;20090;-67
2021/12/23 08:01:26;;;;;;;32.67;18.55;;;0.20;99.90;;;;;;5051814;28;20048;-67
2021/12/23 08:03:51;;;;;;;33.85;17.92;;;0.30;99.90;;;;;;5049383;28;20048;-68
2021/12/23 08:06:17;;;;;;;30.73;15.48;;;0.20;99.90;;;;;;5047742;28;20037;-67
2021/12/23 08:08:43;;;;;;;32.85;17.98;;;0.20;99.90;;;;;;5054358;28;20049;-68
2021/12/23 08:11:09;;;;;;;30.30;18.08;;;0.20;99.90;;;;;;5045837;28;20120;-68
2021/12/23 08:13:35;;;;;;;28.58;17.95;;;0.20;99.90;;;;;;5051156;28;20487;-67
2021/12/23 08:16:01;;;;;;;31.42;18.75;;;0.20;99.90;;;;;;5050373;28;20048;-65
2021/12/23 08:18:29;;;;;;;33.50;17.85;;;0.20;99.90;;;;;;5051417;28;20049;-67
2021/12/23 08:20:55;;;;;;;30.13;16.60;;;0.20;99.90;;;;;;5051974;28;20091;-65
2021/12/23 08:23:20;;;;;;;29.23;17.65;;;0.20;99.90;;;;;;5051026;28;20490;-66
2021/12/23 08:25:46;;;;;;;32.20;18.15;;;0.20;99.90;;;;;;5051101;28;20041;-65
2021/12/23 08:28:12;;;;;;;31.42;17.17;;;0.20;99.90;;;;;;5049985;28;20163;-67
2021/12/23 08:30:39;;;;;;;30.05;17.52;;;0.20;99.90;;;;;;5033080;28;20516;-66
2021/12/23 08:33:06;;;;;;;32.03;17.95;;;0.20;99.90;;;;;;5049149;28;20036;-66
2021/12/23 08:35:32;;;;;;;33.58;18.95;;;0.20;99.90;;;;;;5048074;28;20037;-66
2021/12/23 08:37:58;;;;;;;37.08;20.00;;;0.20;99.90;;;;;;5049566;28;20041;-66
2021/12/23 08:40:27;;;;;;;32.28;18.63;;;0.20;99.90;;;;;;5049871;28;20212;-67
2021/12/23 08:42:56;;;;;;;30.33;18.23;;;0.20;99.90;;;;;;5049331;28;20120;-67
2021/12/23 08:45:23;;;;;;;33.40;17.90;;;0.20;99.90;;;;;;5042853;28;20041;-68
2021/12/23 08:47:48;;;;;;;33.00;17.10;;;0.20;99.90;;;;;;5047954;28;20478;-66
2021/12/23 08:50:16;;;;;;;34.92;18.65;;;0.10;99.90;;;;;;5048651;28;20041;-67
2021/12/23 08:52:42;;;;;;;32.70;19.52;;;0.20;99.90;;;;;;5049021;28;20038;-68
2021/12/23 08:55:09;;;;;;;34.13;20.23;;;0.10;99.90;;;;;;5049261;28;20482;-67
2021/12/23 08:57:35;;;;;;;34.42;19.88;;;0.20;99.90;;;;;;5050477;28;20037;-67
2021/12/23 09:00:00;;;;;;;36.55;18.95;;;0.10;99.90;;;;;;5049624;28;20029;-67
2021/12/23 09:02:26;;;;;;;35.83;21.23;;;0.20;99.90;;;;;;5040888;28;20479;-67
2021/12/23 09:04:52;;;;;;;36.80;19.60;;;0.20;99.90;;;;;;5045877;28;20060;-67
2021/12/23 09:07:18;;;;;;;36.03;19.80;;;0.20;99.90;;;;;;5049285;28;20034;-69
2021/12/23 09:09:51;;;;;;;32.88;18.77;;;0.20;99.90;;;;;;5047336;28;20131;-68
2021/12/23 09:12:18;;;;;;;35.53;19.80;;;0.20;99.90;;;;;;5046463;28;20177;-69
2021/12/23 09:14:44;;;;;;;36.70;19.67;;;0.20;99.90;;;;;;5049451;28;20080;-68
2021/12/23 09:17:10;;;;;;;37.15;20.73;;;0.20;99.90;;;;;;5045589;28;20522;-69
2021/12/23 09:19:36;;;;;;;39.15;21.15;;;0.30;99.90;;;;;;5045838;28;20059;-68
2021/12/23 09:22:03;;;;;;;36.72;20.27;;;0.30;99.90;;;;;;5043685;28;20052;-68
2021/12/23 09:24:29;;;;;;;37.90;21.30;;;0.30;99.90;;;;;;5047944;28;20049;-68
2021/12/23 09:27:01;;;;;;;39.47;21.15;;;0.30;99.90;;;;;;5045939;28;20064;-69
2021/12/23 09:34:57;;;;;;;36.65;20.80;;;0.30;99.90;;;;;;5047530;28;20116;-69
2021/12/23 09:37:23;;;;;;;;;;;0.40;99.90;;;;;;5047357;28;20102;-69
2021/12/23 09:39:53;;;;;;;36.72;20.50;;;0.40;99.90;;;;;;5048307;28;19921;-68
2021/12/23 09:42:30;;;;;;;37.60;20.98;;;0.40;99.90;;;;;;5049089;28;20053;-67
2021/12/23 09:45:00;;;;;;;40.58;23.13;;;0.40;99.90;;;;;;5049525;28;20045;-67
2021/12/23 09:47:28;;;;;;;45.05;23.10;;;0.40;99.90;;;;;;5043511;28;20064;-67
2021/12/23 09:49:59;;;;;;;40.22;22.90;;;0.40;99.90;;;;;;5034842;28;20091;-69
2021/12/23 09:52:29;;;;;;;41.08;22.20;;;0.40;99.90;;;;;;5054298;28;20056;-68
2021/12/23 09:54:55;;;;;;;45.67;24.75;;;0.40;99.90;;;;;;5050313;28;20064;-67
2021/12/23 09:57:21;;;;;;;43.38;23.77;;;0.40;99.90;;;;;;5048988;28;20406;-67
2021/12/23 09:59:47;;;;;;;45.88;24.58;;;0.40;99.90;;;;;;5050454;28;20165;-68
2021/12/23 10:02:14;;;;;;;46.45;25.48;;;0.40;99.90;;;;;;5051337;28;20648;-67
2021/12/23 10:04:40;;;;;;;50.90;25.65;;;0.30;99.90;;;;;;5049492;28;20041;-69
2021/12/23 10:07:05;;;;;;;52.13;27.73;;;0.40;99.90;;;;;;5044838;28;20467;-68
2021/12/23 10:31:26;;;;;;;60.20;30.52;;;0.40;99.90;;;;;;5047544;28;20568;-67
2021/12/23 10:37:15;;;;;;;62.33;30.38;;;0.40;99.90;;;;;;5049954;28;20092;-68
2021/12/23 10:39:47;;;;;;;67.20;30.92;;;0.40;99.90;;;;;;5035830;28;20041;-68
2021/12/23 10:42:24;;;;;;;69.43;32.88;;;0.40;99.90;;;;;;5050048;28;20085;-68
2021/12/23 10:44:58;;;;;;;72.18;33.47;;;0.40;99.90;;;;;;5049285;28;20106;-68
2021/12/23 10:47:37;;;;;;;71.93;33.85;;;0.40;99.90;;;;;;5046295;28;20093;-69
2021/12/23 10:50:31;;;;;;;73.70;33.75;;;0.40;99.90;;;;;;5046625;28;20047;-68
2021/12/23 10:53:05;;;;;;;70.38;32.33;;;0.40;99.90;;;;;;5051152;28;20453;-68
2021/12/23 10:58:16;;;;;;;79.13;38.08;;;0.40;99.90;;;;;;5045952;28;20064;-69
2021/12/23 11:00:53;;;;;;;77.13;35.60;;;0.40;99.90;;;;;;5050776;28;20594;-68
2021/12/23 11:03:30;;;;;;;75.93;35.03;;;0.40;99.90;;;;;;5045922;28;20052;-69
2021/12/23 11:27:33;;;;;;;85.38;37.10;;;0.50;99.90;;;;;;5053632;28;20053;-68
2021/12/23 11:31:41;;;;;;;82.40;37.03;;;0.60;99.90;;;;;;5049166;28;20045;-69
2021/12/23 11:43:57;;;;;;;79.20;36.17;;;0.60;99.90;;;;;;5050909;28;20045;-68
2021/12/23 11:46:54;;;;;;;83.50;36.17;;;0.60;99.90;;;;;;5044056;28;20045;-68
2021/12/23 11:49:21;;;;;;;85.82;35.88;;;0.60;99.90;;;;;;5051597;28;20084;-69
2021/12/23 11:54:27;;;;;;;85.15;37.45;;;0.50;99.90;;;;;;5066234;28;20060;-68
2021/12/23 11:57:19;;;;;;;80.18;35.78;;;0.60;99.90;;;;;;5043075;28;20041;-67
2021/12/23 11:59:59;;;;;;;87.72;35.97;;;0.60;99.90;;;;;;5048328;28;20083;-67
2021/12/23 12:02:25;;;;;;;85.85;36.90;;;0.60;99.90;;;;;;5051232;28;20525;-67
2021/12/23 12:05:00;;;;;;;83.80;37.03;;;0.60;99.90;;;;;;5051495;28;20049;-67
2021/12/23 12:07:26;;;;;;;82.15;35.95;;;0.60;99.90;;;;;;5051277;28;20055;-66
2021/12/23 12:10:11;;;;;;;92.65;37.08;;;0.60;99.90;;;;;;5051567;28;20044;-67
2021/12/23 12:13:01;;;;;;;85.47;37.50;;;0.60;99.90;;;;;;5049677;28;20071;-66
2021/12/23 12:15:38;;;;;;;96.00;38.05;;;0.60;99.90;;;;;;5036484;28;20045;-67
2021/12/23 12:18:21;;;;;;;76.03;34.40;;;0.70;99.90;;;;;;5050032;28;20411;-68
2021/12/23 12:20:54;;;;;;;83.47;35.30;;;0.60;99.90;;;;;;5039804;28;20182;-67
2021/12/23 12:23:44;;;;;;;83.05;34.75;;;0.70;99.90;;;;;;5041703;28;20049;-67
2021/12/23 12:26:24;;;;;;;87.50;37.53;;;0.70;99.90;;;;;;5045570;28;20080;-67
2021/12/23 12:28:50;;;;;;;88.03;35.83;;;0.70;99.90;;;;;;5046573;28;20047;-67
2021/12/23 12:31:25;;;;;;;76.80;33.20;;;0.80;99.90;;;;;;5048175;28;20076;-67
2021/12/23 12:34:09;;;;;;;89.38;37.15;;;0.80;99.90;;;;;;5054931;28;20091;-68
2021/12/23 12:36:41;;;;;;;82.53;35.75;;;0.80;99.90;;;;;;5044212;28;20048;-67
2021/12/23 12:39:09;;;;;;;83.05;36.40;;;0.90;99.90;;;;;;5043508;28;20041;-67
2021/12/23 12:41:37;;;;;;;88.03;38.08;;;0.90;99.90;;;;;;5045145;28;20171;-68
2021/12/23 12:44:21;;;;;;;80.90;36.88;;;0.90;99.90;;;;;;5047714;28;20041;-67
2021/12/23 12:47:14;;;;;;;84.22;35.65;;;0.90;99.90;;;;;;5047168;28;20048;-67
2021/12/23 12:49:42;;;;;;;96.45;38.78;;;1.00;99.90;;;;;;5038265;28;20052;-68
2021/12/23 12:52:10;;;;;;;76.38;34.95;;;1.00;99.90;;;;;;5042196;28;20087;-68
2021/12/23 12:54:52;;;;;;;85.00;37.00;;;1.10;99.90;;;;;;5046251;28;20060;-67
2021/12/23 12:57:21;;;;;;;82.22;36.42;;;1.10;99.90;;;;;;5026198;28;20049;-67
2021/12/23 12:59:49;;;;;;;85.75;36.20;;;1.70;99.90;;;;;;5043332;28;20089;-67
2021/12/23 13:02:32;;;;;;;72.75;33.33;;;1.10;99.90;;;;;;5044411;28;20033;-65
2021/12/23 13:05:06;;;;;;;86.00;36.63;;;1.10;99.90;;;;;;5043793;28;20582;-66
2021/12/23 13:07:35;;;;;;;76.75;33.70;;;1.20;99.90;;;;;;5045899;28;20122;-66
2021/12/23 13:10:12;;;;;;;80.65;35.65;;;1.10;99.90;;;;;;5047779;28;20090;-66
2021/12/23 13:12:52;;;;;;;90.55;35.67;;;1.10;99.90;;;;;;5045555;28;20041;-65
2021/12/23 13:15:29;;;;;;;78.50;34.92;;;1.10;99.90;;;;;;5034761;28;20197;-65
2021/12/23 13:17:57;;;;;;;87.75;36.33;;;1.00;99.90;;;;;;5058119;28;20061;-66
2021/12/23 13:20:49;;;;;;;89.35;36.72;;;1.00;99.90;;;;;;5028128;28;20049;-66
2021/12/23 13:23:18;;;;;;;86.95;37.60;;;1.00;99.90;;;;;;5032542;28;20048;-66
2021/12/23 13:25:54;;;;;;;88.03;37.08;;;1.00;99.90;;;;;;5046148;28;20051;-67
2021/12/23 13:28:25;;;;;;;80.28;34.42;;;1.00;99.90;;;;;;5043168;28;20088;-66
2021/12/23 13:30:51;;;;;;;85.03;35.95;;;1.10;99.90;;;;;;5045259;28;20048;-66
2021/12/23 13:33:17;;;;;;;81.55;35.35;;;1.00;99.90;;;;;;5042159;28;20133;-68
2021/12/23 13:35:42;;;;;;;83.93;37.20;;;1.00;99.90;;;;;;5042488;28;20047;-67
2021/12/23 13:38:10;;;;;;;91.88;36.30;;;1.00;99.90;;;;;;5046307;28;20040;-68
2021/12/23 13:40:39;;;;;;;83.88;36.08;;;1.00;99.90;;;;;;5052113;28;20051;-67
2021/12/23 13:43:05;;;;;;;85.63;35.20;;;1.00;99.90;;;;;;5045351;28;20514;-67
2021/12/23 13:45:31;;;;;;;96.88;40.53;;;1.00;99.90;;;;;;5040473;28;20056;-68
2021/12/23 13:47:58;;;;;;;92.22;36.63;;;1.00;99.90;;;;;;5043811;28;20499;-67
2021/12/23 13:50:27;;;;;;;95.82;38.85;;;1.00;99.90;;;;;;5046202;28;20060;-67
2021/12/23 13:52:54;;;;;;;85.50;36.03;;;1.00;99.90;;;;;;5045318;28;20430;-67
2021/12/23 13:55:27;;;;;;;81.78;35.90;;;1.00;99.90;;;;;;5046452;28;20088;-67
2021/12/23 13:57:56;;;;;;;88.13;37.08;;;1.00;99.90;;;;;;5042905;28;20064;-67